createdAt,value
2024-02-17T00:01:15.238Z,8.18
2024-02-17T00:05:17.198Z,8.32
2024-02-17T00:09:19.119Z,9.52
2024-02-17T00:13:20.911Z,9.35
2024-02-17T00:17:22.667Z,9.05
2024-02-17T00:21:24.444Z,8.43
2024-02-17T00:25:26.170Z,8.85
2024-02-17T00:29:28.042Z,8.38
2024-02-17T00:33:29.998Z,8.07
2024-02-17T00:37:32.734Z,7.60
2024-02-17T00:41:34.588Z,7.63
2024-02-17T00:45:36.340Z,7.82
2024-02-17T00:49:38.286Z,8.05
2024-02-17T00:53:43.703Z,8.45
2024-02-17T00:57:45.759Z,8.32
2024-02-17T01:01:49.846Z,7.68
2024-02-17T01:05:52.432Z,8.32
2024-02-17T01:09:57.048Z,7.68
2024-02-17T01:13:58.938Z,8.00
2024-02-17T01:18:00.801Z,8.52
2024-02-17T01:22:02.632Z,7.72
2024-02-17T01:26:04.614Z,8.32
2024-02-17T01:30:07.142Z,9.05
2024-02-17T01:34:09.454Z,8.55
2024-02-17T01:38:11.288Z,8.30
2024-02-17T01:42:13.169Z,8.90
2024-02-17T01:46:14.997Z,8.90
2024-02-17T01:50:16.893Z,8.65
2024-02-17T01:54:19.324Z,8.30
2024-02-17T01:58:21.830Z,8.27
2024-02-17T02:02:24.130Z,7.97
2024-02-17T02:06:25.976Z,7.20
2024-02-17T02:10:27.847Z,8.10
2024-02-17T02:14:31.447Z,8.13
2024-02-17T02:18:33.416Z,7.60
2024-02-17T02:22:36.846Z,7.25
2024-02-17T02:26:38.650Z,7.55
2024-02-17T02:30:41.528Z,6.78
2024-02-17T02:34:43.437Z,7.32
2024-02-17T02:38:47.975Z,6.38
2024-02-17T02:42:49.806Z,6.25
2024-02-17T02:46:51.606Z,5.53
2024-02-17T02:50:53.329Z,5.70
2024-02-17T02:54:55.130Z,6.03
2024-02-17T02:58:56.924Z,6.22
2024-02-17T03:02:58.708Z,5.18
2024-02-17T03:07:00.554Z,5.57
2024-02-17T03:11:03.087Z,5.22
2024-02-17T03:15:05.740Z,4.93
2024-02-17T03:19:08.183Z,6.10
2024-02-17T03:23:09.939Z,6.13
2024-02-17T03:27:11.657Z,5.88
2024-02-17T03:31:13.468Z,6.05
2024-02-17T03:35:15.519Z,6.45
2024-02-17T03:39:20.395Z,6.95
2024-02-17T03:43:22.779Z,6.45
2024-02-17T03:47:24.565Z,8.05
2024-02-17T03:51:26.636Z,6.85
2024-02-17T03:55:28.345Z,8.35
2024-02-17T03:59:30.059Z,8.23
2024-02-17T04:03:32.576Z,7.80
2024-02-17T04:07:34.508Z,8.20
2024-02-17T04:11:38.512Z,8.70
2024-02-17T04:15:40.650Z,7.82
2024-02-17T04:19:42.820Z,8.30
2024-02-17T04:23:45.059Z,8.70
2024-02-17T04:27:46.901Z,7.38
2024-02-17T04:31:48.758Z,8.40
2024-02-17T04:35:52.629Z,7.60
2024-02-17T04:39:55.001Z,7.93
2024-02-17T04:43:56.883Z,7.32
2024-02-17T04:47:58.661Z,8.80
2024-02-17T04:52:00.425Z,9.25
2024-02-17T04:56:02.185Z,8.55
2024-02-17T05:00:07.102Z,8.40
2024-02-17T05:04:09.372Z,7.75
2024-02-17T05:08:11.594Z,8.18
2024-02-17T05:12:13.487Z,7.43
2024-02-17T05:16:15.393Z,8.38
2024-02-17T05:20:17.401Z,8.23
2024-02-17T05:24:19.169Z,7.60
2024-02-17T05:28:21.307Z,7.47
2024-02-17T05:32:23.067Z,8.55
2024-02-17T05:36:25.392Z,7.70
2024-02-17T05:40:27.171Z,7.47
2024-02-17T05:44:29.415Z,7.45
2024-02-17T05:48:31.345Z,7.88
2024-02-17T05:52:34.104Z,7.70
2024-02-17T05:56:36.031Z,7.57
2024-02-17T06:00:37.916Z,7.43
2024-02-17T06:04:39.864Z,7.85
2024-02-17T06:08:43.081Z,8.07
2024-02-17T06:12:44.905Z,7.30
2024-02-17T06:16:46.654Z,7.00
2024-02-17T06:21:07.018Z,7.03
2024-02-17T06:25:09.437Z,6.97
2024-02-17T06:29:23.686Z,6.32
2024-02-17T06:33:25.627Z,6.72
2024-02-17T06:37:27.503Z,6.65
2024-02-17T06:41:30.012Z,6.68
2024-02-17T06:45:31.989Z,6.57
2024-02-17T06:49:33.901Z,6.35
2024-02-17T06:53:35.794Z,5.95
2024-02-17T06:57:38.704Z,6.32
2024-02-17T07:01:40.620Z,6.45
2024-02-17T07:05:42.630Z,6.25
2024-02-17T07:09:44.704Z,6.43
2024-02-17T07:13:46.626Z,6.50
2024-02-17T07:17:49.426Z,7.13
2024-02-17T07:21:51.288Z,6.40
2024-02-17T07:25:53.138Z,6.60
2024-02-17T07:29:55.338Z,6.70
2024-02-17T07:33:59.110Z,6.35
2024-02-17T07:38:00.932Z,6.72
2024-02-17T07:42:03.364Z,6.93
2024-02-17T07:46:05.501Z,6.60
2024-02-17T07:50:09.008Z,6.25
2024-02-17T07:59:33.512Z,5.63
2024-02-17T08:03:35.393Z,6.53
2024-02-17T08:07:37.272Z,5.60
2024-02-17T08:11:39.112Z,6.65
2024-02-17T08:15:41.032Z,5.75
2024-02-17T08:19:42.918Z,6.75
2024-02-17T08:23:44.879Z,6.40
2024-02-17T08:27:46.815Z,6.68
2024-02-17T08:31:52.088Z,5.93
2024-02-17T08:35:54.364Z,6.22
2024-02-17T08:39:56.231Z,5.47
2024-02-17T08:43:57.988Z,6.30
2024-02-17T08:47:59.804Z,6.22
2024-02-17T08:52:02.442Z,6.35
2024-02-17T08:56:04.549Z,6.95
2024-02-17T09:00:07.092Z,7.38
2024-02-17T09:04:09.261Z,6.65
2024-02-17T09:08:11.070Z,8.07
2024-02-17T09:13:05.907Z,8.07
2024-02-17T09:17:07.737Z,7.82
2024-02-17T09:21:10.129Z,7.90
2024-02-17T09:25:11.925Z,8.43
2024-02-17T09:29:13.839Z,8.30
2024-02-17T09:33:15.889Z,8.75
2024-02-17T09:37:17.743Z,7.88
2024-02-17T09:41:19.618Z,8.75
2024-02-17T09:45:22.363Z,9.02
2024-02-17T09:49:28.103Z,8.65
2024-02-17T09:53:32.873Z,8.63
2024-02-17T09:57:42.499Z,9.13
2024-02-17T10:01:49.379Z,7.95
2024-02-17T10:05:51.691Z,6.95
2024-02-17T10:09:53.491Z,7.57
2024-02-17T10:14:03.655Z,7.50
2024-02-17T10:18:05.593Z,7.53
2024-02-17T10:22:07.517Z,7.55
2024-02-17T10:26:09.297Z,6.85
2024-02-17T10:30:17.621Z,7.55
2024-02-17T10:34:19.782Z,8.15
2024-02-17T10:38:23.593Z,7.60
2024-02-17T10:42:25.478Z,7.72
2024-02-17T10:46:29.194Z,8.90
2024-02-17T10:50:47.677Z,8.38
2024-02-17T10:55:07.475Z,7.72
2024-02-17T10:59:10.160Z,7.82
2024-02-17T11:03:14.767Z,8.20
2024-02-17T11:07:18.134Z,7.22
2024-02-17T11:11:25.113Z,8.48
2024-02-17T11:15:27.216Z,6.78
2024-02-17T11:19:35.996Z,8.32
2024-02-17T11:23:43.996Z,8.82
2024-02-17T11:27:45.977Z,8.20
2024-02-17T11:31:49.190Z,7.90
2024-02-17T11:35:51.722Z,8.77
2024-02-17T11:39:53.854Z,9.20
2024-02-17T11:43:56.667Z,9.25
2024-02-17T11:47:58.576Z,10.07
2024-02-17T11:52:01.255Z,9.68
2024-02-17T11:56:03.610Z,8.85
2024-02-17T12:00:09.386Z,10.50
2024-02-17T12:04:12.476Z,10.35
2024-02-17T12:08:14.827Z,10.23
2024-02-17T12:12:16.834Z,10.07
2024-02-17T12:21:42.417Z,9.77
2024-02-17T12:25:45.305Z,10.98
2024-02-17T12:29:51.483Z,10.95
2024-02-17T12:33:54.012Z,12.02
2024-02-17T12:37:57.345Z,11.93
2024-02-17T12:42:05.617Z,10.88
2024-02-17T12:46:37.826Z,10.60
2024-02-17T12:50:42.062Z,9.32
2024-02-17T12:54:44.923Z,9.98
2024-02-17T12:58:46.989Z,10.65
2024-02-17T13:02:48.806Z,9.70
2024-02-17T13:06:50.704Z,10.40
2024-02-17T13:10:54.006Z,12.95
2024-02-17T13:14:55.816Z,12.95
2024-02-17T13:19:00.003Z,12.82
2024-02-17T13:23:33.450Z,12.43
2024-02-17T13:27:41.322Z,12.35
2024-02-17T13:31:43.793Z,11.88
2024-02-17T13:35:45.861Z,12.30
2024-02-17T13:39:47.711Z,12.23
2024-02-17T13:43:50.227Z,11.25
2024-02-17T13:47:52.191Z,11.45
2024-02-17T13:51:54.058Z,10.32
2024-02-17T13:55:56.081Z,11.02
2024-02-17T13:59:59.486Z,11.18
2024-02-17T14:04:42.129Z,8.48
2024-02-17T14:13:26.642Z,7.65
2024-02-17T14:17:28.744Z,7.28
2024-02-17T14:21:31.029Z,8.02
2024-02-17T14:25:34.634Z,8.27
2024-02-17T14:29:45.378Z,8.80
2024-02-17T14:33:47.345Z,8.68
2024-02-17T14:37:49.500Z,7.75
2024-02-17T14:41:51.732Z,6.72
2024-02-17T14:45:53.605Z,6.80
2024-02-17T14:49:55.541Z,8.02
2024-02-17T14:53:57.617Z,7.20
2024-02-17T14:57:59.626Z,7.45
2024-02-17T15:02:02.179Z,6.82
2024-02-17T15:06:04.334Z,6.45
2024-02-17T15:10:08.564Z,6.25
2024-02-17T15:14:10.402Z,5.63
2024-02-17T15:18:12.197Z,6.10
2024-02-17T15:22:13.900Z,6.28
2024-02-17T15:26:16.071Z,7.00
2024-02-17T15:30:18.265Z,6.55
2024-02-17T15:34:21.670Z,6.90
2024-02-17T15:38:26.129Z,7.10
2024-02-17T15:42:28.747Z,6.85
2024-02-17T15:46:30.536Z,6.38
2024-02-17T15:50:32.531Z,6.57
2024-02-17T15:54:34.352Z,6.25
2024-02-17T15:58:36.121Z,6.03
2024-02-17T16:02:38.944Z,6.82
2024-02-17T16:06:43.231Z,7.47
2024-02-17T16:10:45.113Z,7.40
2024-02-17T16:14:46.853Z,6.68
2024-02-17T16:18:51.362Z,7.15
2024-02-17T16:22:53.345Z,7.80
2024-02-17T16:26:55.127Z,6.80
2024-02-17T16:30:57.421Z,6.28
2024-02-17T16:34:59.350Z,6.43
2024-02-17T16:39:05.509Z,6.80
2024-02-17T16:43:07.661Z,7.38
2024-02-17T16:47:12.745Z,5.40
2024-02-17T16:51:14.652Z,5.03
2024-02-17T16:55:16.485Z,4.97
2024-02-17T16:59:18.361Z,5.80
2024-02-17T17:03:21.814Z,5.00
2024-02-17T17:07:23.898Z,5.13
2024-02-17T17:11:26.342Z,5.90
2024-02-17T17:15:28.178Z,5.80
2024-02-17T17:19:30.693Z,6.13
2024-02-17T17:23:32.997Z,6.25
2024-02-17T17:27:35.748Z,5.32
2024-02-17T17:31:37.725Z,6.20
2024-02-17T17:35:39.502Z,6.32
2024-02-17T17:39:41.371Z,6.22
2024-02-17T17:43:43.203Z,6.10
2024-02-17T17:47:45.012Z,6.03
2024-02-17T17:51:47.783Z,6.43
2024-02-17T17:55:50.077Z,5.88
2024-02-17T17:59:53.260Z,5.95
2024-02-17T18:03:55.759Z,6.78
2024-02-17T18:07:59.450Z,6.05
2024-02-17T18:12:01.176Z,6.75
2024-02-17T18:16:03.998Z,6.45
2024-02-17T18:20:07.073Z,6.82
2024-02-17T18:24:08.891Z,7.15
2024-02-17T18:28:10.803Z,8.30
2024-02-17T18:32:12.667Z,7.55
2024-02-17T18:36:18.463Z,8.90
2024-02-17T18:40:20.366Z,7.78
2024-02-17T18:44:23.176Z,7.63
2024-02-17T18:48:25.142Z,8.23
2024-02-17T18:52:29.424Z,7.80
2024-02-17T18:56:31.285Z,8.57
2024-02-17T19:00:33.113Z,8.82
2024-02-17T19:04:34.936Z,8.43
2024-02-17T19:08:36.677Z,8.95
2024-02-17T19:12:38.440Z,9.82
2024-02-17T19:16:40.359Z,9.68
2024-02-17T19:20:42.349Z,9.45
2024-02-17T19:24:44.281Z,10.13
2024-02-17T19:28:46.111Z,9.75
2024-02-17T19:32:48.496Z,11.07
2024-02-17T19:36:50.254Z,11.68
2024-02-17T19:40:51.997Z,10.63
2024-02-17T19:44:53.733Z,10.88
2024-02-17T19:48:56.172Z,11.32
2024-02-17T19:52:58.023Z,9.63
2024-02-17T20:02:23.746Z,10.57
2024-02-17T20:06:59.484Z,11.52
2024-02-17T20:11:01.998Z,10.32
2024-02-17T20:15:04.358Z,10.32
2024-02-17T20:19:06.559Z,11.07
2024-02-17T20:23:08.421Z,9.45
2024-02-17T20:27:11.240Z,11.43
2024-02-17T20:31:13.087Z,9.75
2024-02-17T20:35:14.971Z,9.93
2024-02-17T20:39:16.937Z,7.88
2024-02-17T20:43:18.669Z,10.32
2024-02-17T20:47:20.434Z,8.85
2024-02-17T20:51:22.318Z,9.63
2024-02-17T20:55:24.114Z,9.73
2024-02-17T20:59:26.716Z,9.10
2024-02-17T21:03:28.576Z,8.05
2024-02-17T21:07:30.367Z,9.10
2024-02-17T21:11:32.233Z,7.72
2024-02-17T21:15:34.142Z,8.20
2024-02-17T21:19:39.011Z,7.70
2024-02-17T21:23:40.941Z,7.15
2024-02-17T21:27:42.790Z,7.82
2024-02-17T21:31:44.653Z,7.70
2024-02-17T21:35:48.515Z,7.90
2024-02-17T21:39:51.781Z,5.68
2024-02-17T21:43:53.616Z,6.75
2024-02-17T21:47:55.600Z,5.28
2024-02-17T21:51:57.531Z,6.72
2024-02-17T21:55:59.363Z,7.22
2024-02-17T22:00:01.229Z,5.25
2024-02-17T22:04:03.191Z,6.82
2024-02-17T22:08:06.006Z,6.78
2024-02-17T22:12:07.807Z,6.95
2024-02-17T22:16:09.652Z,6.03
2024-02-17T22:20:13.653Z,6.70
2024-02-17T22:24:18.489Z,5.95
2024-02-17T22:28:20.356Z,5.45
2024-02-17T22:32:22.212Z,4.88
2024-02-17T22:36:23.994Z,6.18
2024-02-17T22:40:28.374Z,6.50
2024-02-17T22:44:30.161Z,4.70
2024-02-17T22:48:32.161Z,5.82
2024-02-17T22:52:34.262Z,5.60
2024-02-17T23:01:58.445Z,6.03
2024-02-17T23:06:00.666Z,5.35
2024-02-17T23:10:02.491Z,5.20
2024-02-17T23:14:04.919Z,5.15
2024-02-17T23:18:06.996Z,5.03
2024-02-17T23:22:09.013Z,4.63
2024-02-17T23:26:11.143Z,4.85
2024-02-17T23:30:45.067Z,4.57
2024-02-17T23:40:14.441Z,4.38
2024-02-17T23:44:17.620Z,4.32
2024-02-17T23:48:19.483Z,5.18
2024-02-17T23:52:21.378Z,4.55
2024-02-17T23:56:23.087Z,4.18
